PWSweather.com
Personal Weather Stations
Station Observations
ISARDEGN48
BittiIT 08021

BittiIT 08021

Lat: 40.4805, Lon: 9.3887

Elevation: 1804

Station Type: La Crosse WS2355

http://meteobitti.altervista.org

High Low Average
Temperature 58.3°F14.6°C 46.6°F8.1°C 51.1°F10.6°C
Dew Point 43.2°F6.2°C 37.6°F3.1°C 40.6°F4.8°C
Winds 25.5 mph 41.0 kmh Calm Calm 7.0 mph SE11.3 kmh SE
Wind Gusts 33.1 mph53.3 kmh 6.9 mph11.1 kmh 17.0 mph27.4 kmh
Humidity 84% 56% 68%
Pressure 30.79 in1042.7 mb 30.61 in1036.6 mb -
Precipitation 0.00 in0.0 mm - -
Hour Temp Dew Point Humidity Winds Wind Gusts Pressure Precip Precip Rate Daily Precip Total
12:00 AM 48.2°F9.0°C 41.6°F5.3°C 78% 26.6 mph SSW42.8 kmh SSW 35.1 mph56.5 kmh 30.80 in1043.0 mb 0.00 in0.0 mm 0.00 in0.0 mm 0.00 in0.0 mm
12:05 AM 48.4°F9.1°C 42.1°F5.6°C 79% 28.9 mph S46.5 kmh S 35.1 mph56.5 kmh 30.80 in1043.0 mb 0.00 in0.0 mm 0.00 in0.0 mm 0.00 in0.0 mm
12:10 AM 48.2°F9.0°C 41.9°F5.5°C 79% 26.6 mph S42.8 kmh S 34.4 mph55.4 kmh 30.80 in1043.0 mb 0.00 in0.0 mm 0.00 in0.0 mm 0.00 in0.0 mm
12:15 AM 47.8°F8.8°C 42.2°F5.7°C 81% 26.4 mph SSW42.5 kmh SSW 35.6 mph57.3 kmh 30.80 in1043.0 mb 0.00 in0.0 mm 0.00 in0.0 mm 0.00 in0.0 mm
12:20 AM 47.3°F8.5°C 42.4°F5.8°C 83% 30.9 mph SSW49.7 kmh SSW 36.5 mph58.7 kmh 30.80 in1043.0 mb 0.00 in0.0 mm 0.00 in0.0 mm 0.00 in0.0 mm
12:25 AM 47.1°F8.4°C 42.2°F5.7°C 83% 24.8 mph S39.9 kmh S 36.5 mph58.7 kmh 30.80 in1043.0 mb 0.00 in0.0 mm 0.00 in0.0 mm 0.00 in0.0 mm
12:30 AM 46.9°F8.3°C 42.4°F5.8°C 84% 16.3 mph S26.2 kmh S 35.6 mph57.3 kmh 30.80 in1043.0 mb 0.00 in0.0 mm 0.00 in0.0 mm 0.00 in0.0 mm
12:35 AM 46.9°F8.3°C 42.7°F5.9°C 85% 20.8 mph SSW33.5 kmh SSW 34.4 mph55.4 kmh 30.79 in1042.7 mb 0.00 in0.0 mm 0.00 in0.0 mm 0.00 in0.0 mm
12:40 AM 46.9°F8.3°C 42.4°F5.8°C 84% 21.0 mph SSW33.8 kmh SSW 34.4 mph55.4 kmh 30.79 in1042.7 mb 0.00 in0.0 mm 0.00 in0.0 mm 0.00 in0.0 mm
12:45 AM 46.9°F8.3°C 42.4°F5.8°C 84% 21.3 mph SSW34.3 kmh SSW 32.0 mph51.5 kmh 30.80 in1043.0 mb 0.00 in0.0 mm 0.00 in0.0 mm 0.00 in0.0 mm
12:50 AM 47.1°F8.4°C 42.5°F5.8°C 84% 24.2 mph SSW38.9 kmh SSW 33.3 mph53.6 kmh 30.79 in1042.7 mb 0.00 in0.0 mm 0.00 in0.0 mm 0.00 in0.0 mm
12:55 AM 46.9°F8.3°C 42.4°F5.8°C 84% 29.3 mph SSW47.2 kmh SSW 33.3 mph53.6 kmh 30.79 in1042.7 mb 0.00 in0.0 mm 0.00 in0.0 mm 0.00 in0.0 mm
01:00 AM 46.6°F8.1°C 42.0°F5.6°C 84% 23.3 mph SSW37.5 kmh SSW 33.1 mph53.3 kmh 30.79 in1042.7 mb 0.00 in0.0 mm 0.00 in0.0 mm 0.00 in0.0 mm
01:05 AM 46.8°F8.2°C 42.2°F5.7°C 84% 22.8 mph SSW36.7 kmh SSW 32.2 mph51.8 kmh 30.78 in1042.3 mb 0.00 in0.0 mm 0.00 in0.0 mm 0.00 in0.0 mm
01:10 AM 46.6°F8.1°C 42.0°F5.6°C 84% 20.4 mph S32.8 kmh S 31.8 mph51.2 kmh 30.78 in1042.3 mb 0.00 in0.0 mm 0.00 in0.0 mm 0.00 in0.0 mm
01:15 AM 47.1°F8.4°C 42.2°F5.7°C 83% 19.2 mph S30.9 kmh S 31.8 mph51.2 kmh 30.77 in1042.0 mb 0.00 in0.0 mm 0.00 in0.0 mm 0.00 in0.0 mm
01:20 AM 47.1°F8.4°C 42.2°F5.7°C 83% 25.5 mph S41.0 kmh S 31.3 mph50.4 kmh 30.77 in1042.0 mb 0.00 in0.0 mm 0.00 in0.0 mm 0.00 in0.0 mm
01:25 AM 47.5°F8.6°C 41.9°F5.5°C 81% 18.8 mph S30.3 kmh S 31.3 mph50.4 kmh 30.77 in1042.0 mb 0.00 in0.0 mm 0.00 in0.0 mm 0.00 in0.0 mm
01:30 AM 47.8°F8.8°C 42.2°F5.7°C 81% 17.9 mph S28.8 kmh S 26.6 mph42.8 kmh 30.77 in1042.0 mb 0.00 in0.0 mm 0.00 in0.0 mm 0.00 in0.0 mm
01:35 AM 48.2°F9.0°C 41.9°F5.5°C 79% 16.1 mph SSW25.9 kmh SSW 26.6 mph42.8 kmh 30.77 in1042.0 mb 0.00 in0.0 mm 0.00 in0.0 mm 0.00 in0.0 mm
01:40 AM 48.4°F9.1°C 41.8°F5.4°C 78% 16.3 mph S26.2 kmh S 23.5 mph37.8 kmh 30.77 in1042.0 mb 0.00 in0.0 mm 0.00 in0.0 mm 0.00 in0.0 mm
01:45 AM 48.4°F9.1°C 41.8°F5.4°C 78% 6.3 mph SSW10.1 kmh SSW 22.6 mph36.4 kmh 30.77 in1042.0 mb 0.00 in0.0 mm 0.00 in0.0 mm 0.00 in0.0 mm
01:50 AM 48.6°F9.2°C 41.9°F5.5°C 78% 17.2 mph SSW27.7 kmh SSW 25.7 mph41.4 kmh 30.77 in1042.0 mb 0.00 in0.0 mm 0.00 in0.0 mm 0.00 in0.0 mm
01:55 AM 48.6°F9.2°C 41.9°F5.5°C 78% 11.0 mph S17.7 kmh S 25.7 mph41.4 kmh 30.77 in1042.0 mb 0.00 in0.0 mm 0.00 in0.0 mm 0.00 in0.0 mm
02:00 AM 48.6°F9.2°C 41.9°F5.5°C 78% 18.8 mph S30.3 kmh S 23.3 mph37.5 kmh 30.77 in1042.0 mb 0.00 in0.0 mm 0.00 in0.0 mm 0.00 in0.0 mm
02:05 AM 48.6°F9.2°C 41.6°F5.3°C 77% 15.4 mph S24.8 kmh S 18.8 mph30.3 kmh 30.77 in1042.0 mb 0.00 in0.0 mm 0.00 in0.0 mm 0.00 in0.0 mm
02:10 AM 48.9°F9.4°C 41.6°F5.3°C 76% Calm Calm 18.8 mph30.3 kmh 30.76 in1041.7 mb 0.00 in0.0 mm 0.00 in0.0 mm 0.00 in0.0 mm
02:15 AM 49.1°F9.5°C 41.8°F5.4°C 76% 1.3 mph SSW2.1 kmh SSW 17.0 mph27.4 kmh 30.76 in1041.7 mb 0.00 in0.0 mm 0.00 in0.0 mm 0.00 in0.0 mm
02:20 AM 49.3°F9.6°C 41.6°F5.3°C 75% 6.9 mph SSW11.1 kmh SSW 14.1 mph22.7 kmh 30.76 in1041.7 mb 0.00 in0.0 mm 0.00 in0.0 mm 0.00 in0.0 mm
02:25 AM 49.3°F9.6°C 41.6°F5.3°C 75% 3.4 mph S5.5 kmh S 18.1 mph29.1 kmh 30.76 in1041.7 mb 0.00 in0.0 mm 0.00 in0.0 mm 0.00 in0.0 mm
02:30 AM 49.3°F9.6°C 41.6°F5.3°C 75% 2.9 mph S4.7 kmh S 18.1 mph29.1 kmh 30.76 in1041.7 mb 0.00 in0.0 mm 0.00 in0.0 mm 0.00 in0.0 mm
02:35 AM 49.3°F9.6°C 41.6°F5.3°C 75% Calm Calm 14.1 mph22.7 kmh 30.76 in1041.7 mb 0.00 in0.0 mm 0.00 in0.0 mm 0.00 in0.0 mm
02:40 AM 49.1°F9.5°C 41.5°F5.3°C 75% 10.3 mph SSW16.6 kmh SSW 14.1 mph22.7 kmh 30.76 in1041.7 mb 0.00 in0.0 mm 0.00 in0.0 mm 0.00 in0.0 mm
02:45 AM 49.1°F9.5°C 41.5°F5.3°C 75% 3.1 mph S5.0 kmh S 10.3 mph16.6 kmh 30.76 in1041.7 mb 0.00 in0.0 mm 0.00 in0.0 mm 0.00 in0.0 mm
02:50 AM 49.1°F9.5°C 41.1°F5.1°C 74% Calm Calm 10.3 mph16.6 kmh 30.75 in1041.3 mb 0.00 in0.0 mm 0.00 in0.0 mm 0.00 in0.0 mm
02:55 AM 49.1°F9.5°C 41.1°F5.1°C 74% 3.1 mph N5.0 kmh N 7.6 mph12.2 kmh 30.75 in1041.3 mb 0.00 in0.0 mm 0.00 in0.0 mm 0.00 in0.0 mm
03:00 AM 48.9°F9.4°C 40.9°F4.9°C 74% Calm Calm 7.6 mph12.2 kmh 30.74 in1041.0 mb 0.00 in0.0 mm 0.00 in0.0 mm 0.00 in0.0 mm
03:05 AM 49.1°F9.5°C 41.1°F5.1°C 74% 11.9 mph SW19.2 kmh SW 11.9 mph19.2 kmh 30.74 in1041.0 mb 0.00 in0.0 mm 0.00 in0.0 mm 0.00 in0.0 mm
03:10 AM 49.1°F9.5°C 41.1°F5.1°C 74% 13.2 mph SSW21.2 kmh SSW 17.9 mph28.8 kmh 30.74 in1041.0 mb 0.00 in0.0 mm 0.00 in0.0 mm 0.00 in0.0 mm
03:15 AM 49.3°F9.6°C 40.9°F4.9°C 73% 10.3 mph SSW16.6 kmh SSW 17.9 mph28.8 kmh 30.74 in1041.0 mb 0.00 in0.0 mm 0.00 in0.0 mm 0.00 in0.0 mm
03:20 AM 49.3°F9.6°C 40.9°F4.9°C 73% 2.9 mph SSW4.7 kmh SSW 16.8 mph27.0 kmh 30.73 in1040.6 mb 0.00 in0.0 mm 0.00 in0.0 mm 0.00 in0.0 mm
03:25 AM 49.3°F9.6°C 40.9°F4.9°C 73% 6.3 mph SSW10.1 kmh SSW 13.4 mph21.6 kmh 30.73 in1040.6 mb 0.00 in0.0 mm 0.00 in0.0 mm 0.00 in0.0 mm
03:30 AM 49.6°F9.8°C 41.3°F5.2°C 73% 4.3 mph SSW6.9 kmh SSW 13.4 mph21.6 kmh 30.73 in1040.6 mb 0.00 in0.0 mm 0.00 in0.0 mm 0.00 in0.0 mm
03:35 AM 49.8°F9.9°C 41.0°F5.0°C 72% 23.9 mph SSW38.5 kmh SSW 23.9 mph38.5 kmh 30.73 in1040.6 mb 0.00 in0.0 mm 0.00 in0.0 mm 0.00 in0.0 mm
03:40 AM 49.8°F9.9°C 41.1°F5.1°C 72% 17.9 mph SSW28.8 kmh SSW 23.9 mph38.5 kmh 30.72 in1040.3 mb 0.00 in0.0 mm 0.00 in0.0 mm 0.00 in0.0 mm
03:45 AM 49.8°F9.9°C 40.8°F4.9°C 71% 15.9 mph SSW25.6 kmh SSW 23.3 mph37.5 kmh 30.72 in1040.3 mb 0.00 in0.0 mm 0.00 in0.0 mm 0.00 in0.0 mm
03:50 AM 49.8°F9.9°C 40.8°F4.9°C 71% 10.3 mph S16.6 kmh S 23.3 mph37.5 kmh 30.71 in1040.0 mb 0.00 in0.0 mm 0.00 in0.0 mm 0.00 in0.0 mm
03:55 AM 49.8°F9.9°C 40.8°F4.9°C 71% Calm Calm 17.0 mph27.4 kmh 30.72 in1040.3 mb 0.00 in0.0 mm 0.00 in0.0 mm 0.00 in0.0 mm
04:00 AM 49.8°F9.9°C 41.1°F5.1°C 72% 6.3 mph S10.1 kmh S 15.0 mph24.1 kmh 30.72 in1040.3 mb 0.00 in0.0 mm 0.00 in0.0 mm 0.00 in0.0 mm
04:05 AM 49.8°F9.9°C 40.8°F4.9°C 71% 2.5 mph SSW4.0 kmh SSW 14.1 mph22.7 kmh 30.71 in1040.0 mb 0.00 in0.0 mm 0.00 in0.0 mm 0.00 in0.0 mm
04:10 AM 49.8°F9.9°C 40.8°F4.9°C 71% 6.0 mph SSW9.7 kmh SSW 18.3 mph29.5 kmh 30.71 in1040.0 mb 0.00 in0.0 mm 0.00 in0.0 mm 0.00 in0.0 mm
04:15 AM 49.8°F9.9°C 40.8°F4.9°C 71% 8.3 mph SSW13.4 kmh SSW 18.3 mph29.5 kmh 30.71 in1040.0 mb 0.00 in0.0 mm 0.00 in0.0 mm 0.00 in0.0 mm
04:20 AM 49.8°F9.9°C 41.1°F5.1°C 72% 4.5 mph SSW7.2 kmh SSW 14.5 mph23.3 kmh 30.71 in1040.0 mb 0.00 in0.0 mm 0.00 in0.0 mm 0.00 in0.0 mm
04:25 AM 49.8°F9.9°C 40.8°F4.9°C 71% Calm Calm 13.0 mph20.9 kmh 30.72 in1040.3 mb 0.00 in0.0 mm 0.00 in0.0 mm 0.00 in0.0 mm
04:30 AM 49.6°F9.8°C 41.0°F5.0°C 72% 7.6 mph S12.2 kmh S 11.9 mph19.2 kmh 30.71 in1040.0 mb 0.00 in0.0 mm 0.00 in0.0 mm 0.00 in0.0 mm
04:35 AM 49.6°F9.8°C 40.6°F4.8°C 71% 9.2 mph SSW14.8 kmh SSW 16.6 mph26.7 kmh 30.71 in1040.0 mb 0.00 in0.0 mm 0.00 in0.0 mm 0.00 in0.0 mm
04:40 AM 49.6°F9.8°C 41.0°F5.0°C 72% 9.8 mph SSW15.8 kmh SSW 21.9 mph35.2 kmh 30.71 in1040.0 mb 0.00 in0.0 mm 0.00 in0.0 mm 0.00 in0.0 mm
04:45 AM 49.6°F9.8°C 41.0°F5.0°C 72% 13.6 mph SSW21.9 kmh SSW 21.9 mph35.2 kmh 30.71 in1040.0 mb 0.00 in0.0 mm 0.00 in0.0 mm 0.00 in0.0 mm
04:50 AM 49.6°F9.8°C 41.0°F5.0°C 72% 17.4 mph SSW28.0 kmh SSW 24.4 mph39.3 kmh 30.71 in1040.0 mb 0.00 in0.0 mm 0.00 in0.0 mm 0.00 in0.0 mm
04:55 AM 49.6°F9.8°C 41.3°F5.2°C 73% 10.5 mph SSW16.9 kmh SSW 24.4 mph39.3 kmh 30.71 in1040.0 mb 0.00 in0.0 mm 0.00 in0.0 mm 0.00 in0.0 mm
05:00 AM 49.3°F9.6°C 40.9°F4.9°C 73% 10.5 mph SSW16.9 kmh SSW 22.4 mph36.0 kmh 30.71 in1040.0 mb 0.00 in0.0 mm 0.00 in0.0 mm 0.00 in0.0 mm
05:05 AM 49.3°F9.6°C 40.9°F4.9°C 73% 14.5 mph SSW23.3 kmh SSW 19.2 mph30.9 kmh 30.71 in1040.0 mb 0.00 in0.0 mm 0.00 in0.0 mm 0.00 in0.0 mm
05:10 AM 49.3°F9.6°C 40.9°F4.9°C 73% Calm Calm 19.2 mph30.9 kmh 30.71 in1040.0 mb 0.00 in0.0 mm 0.00 in0.0 mm 0.00 in0.0 mm
05:15 AM 49.1°F9.5°C 40.8°F4.9°C 73% 5.8 mph SSW9.3 kmh SSW 15.0 mph24.1 kmh 30.70 in1039.6 mb 0.00 in0.0 mm 0.00 in0.0 mm 0.00 in0.0 mm
05:20 AM 49.1°F9.5°C 40.8°F4.9°C 73% Calm Calm 7.8 mph12.6 kmh 30.70 in1039.6 mb 0.00 in0.0 mm 0.00 in0.0 mm 0.00 in0.0 mm
05:25 AM 49.1°F9.5°C 40.4°F4.7°C 72% 3.6 mph SE5.8 kmh SE 7.6 mph12.2 kmh 30.70 in1039.6 mb 0.00 in0.0 mm 0.00 in0.0 mm 0.00 in0.0 mm
05:30 AM 49.3°F9.6°C 40.6°F4.8°C 72% 5.4 mph ESE8.7 kmh ESE 8.9 mph14.3 kmh 30.70 in1039.6 mb 0.00 in0.0 mm 0.00 in0.0 mm 0.00 in0.0 mm
05:35 AM 49.3°F9.6°C 40.3°F4.6°C 71% 5.1 mph S8.2 kmh S 13.0 mph20.9 kmh 30.71 in1040.0 mb 0.00 in0.0 mm 0.00 in0.0 mm 0.00 in0.0 mm
05:40 AM 49.6°F9.8°C 40.6°F4.8°C 71% 10.3 mph S16.6 kmh S 13.4 mph21.6 kmh 30.70 in1039.6 mb 0.00 in0.0 mm 0.00 in0.0 mm 0.00 in0.0 mm
05:45 AM 49.8°F9.9°C 40.1°F4.5°C 69% 2.0 mph SSW3.2 kmh SSW 14.5 mph23.3 kmh 30.70 in1039.6 mb 0.00 in0.0 mm 0.00 in0.0 mm 0.00 in0.0 mm
05:50 AM 49.8°F9.9°C 40.1°F4.5°C 68% 3.8 mph S6.1 kmh S 14.5 mph23.3 kmh 30.69 in1039.3 mb 0.00 in0.0 mm 0.00 in0.0 mm 0.00 in0.0 mm
05:55 AM 49.8°F9.9°C 39.7°F4.3°C 68% 1.3 mph SSE2.1 kmh SSE 10.1 mph16.3 kmh 30.69 in1039.3 mb 0.00 in0.0 mm 0.00 in0.0 mm 0.00 in0.0 mm
06:00 AM 49.8°F9.9°C 39.3°F4.1°C 67% 3.6 mph SE5.8 kmh SE 10.1 mph16.3 kmh 30.69 in1039.3 mb 0.00 in0.0 mm 0.00 in0.0 mm 0.00 in0.0 mm
06:05 AM 50.2°F10.1°C 38.8°F3.8°C 65% 10.5 mph ESE16.9 kmh ESE 15.9 mph25.6 kmh 30.69 in1039.3 mb 0.00 in0.0 mm 0.00 in0.0 mm 0.00 in0.0 mm
06:10 AM 50.5°F10.3°C 38.8°F3.8°C 64% 1.3 mph SE2.1 kmh SE 15.9 mph25.6 kmh 30.69 in1039.3 mb 0.00 in0.0 mm 0.00 in0.0 mm 0.00 in0.0 mm
06:15 AM 50.5°F10.3°C 38.0°F3.3°C 62% 3.1 mph SE5.0 kmh SE 14.8 mph23.8 kmh 30.69 in1039.3 mb 0.00 in0.0 mm 0.00 in0.0 mm 0.00 in0.0 mm
06:20 AM 50.7°F10.4°C 38.1°F3.4°C 62% Calm Calm 13.0 mph20.9 kmh 30.69 in1039.3 mb 0.00 in0.0 mm 0.00 in0.0 mm 0.00 in0.0 mm
06:25 AM 50.5°F10.3°C 38.0°F3.3°C 62% 2.0 mph SE3.2 kmh SE 11.9 mph19.2 kmh 30.69 in1039.3 mb 0.00 in0.0 mm 0.00 in0.0 mm 0.00 in0.0 mm
06:30 AM 50.5°F10.3°C 37.6°F3.1°C 61% 6.7 mph SE10.8 kmh SE 12.5 mph20.1 kmh 30.69 in1039.3 mb 0.00 in0.0 mm 0.00 in0.0 mm 0.00 in0.0 mm
06:35 AM 50.5°F10.3°C 38.0°F3.3°C 62% 6.3 mph SE10.1 kmh SE 13.2 mph21.2 kmh 30.69 in1039.3 mb 0.00 in0.0 mm 0.00 in0.0 mm 0.00 in0.0 mm
06:40 AM 50.5°F10.3°C 37.6°F3.1°C 61% 2.0 mph SSE3.2 kmh SSE 13.2 mph21.2 kmh 30.70 in1039.6 mb 0.00 in0.0 mm 0.00 in0.0 mm 0.00 in0.0 mm
06:45 AM 50.5°F10.3°C 38.0°F3.3°C 62% 2.0 mph ESE3.2 kmh ESE 13.2 mph21.2 kmh 30.69 in1039.3 mb 0.00 in0.0 mm 0.00 in0.0 mm 0.00 in0.0 mm
06:50 AM 50.4°F10.2°C 37.8°F3.2°C 62% 1.1 mph SE1.8 kmh SE 13.2 mph21.2 kmh 30.69 in1039.3 mb 0.00 in0.0 mm 0.00 in0.0 mm 0.00 in0.0 mm
06:55 AM 50.4°F10.2°C 38.2°F3.4°C 63% 2.2 mph SE3.5 kmh SE 10.5 mph16.9 kmh 30.69 in1039.3 mb 0.00 in0.0 mm 0.00 in0.0 mm 0.00 in0.0 mm
07:00 AM 50.2°F10.1°C 38.0°F3.3°C 63% 8.9 mph ESE14.3 kmh ESE 11.4 mph18.3 kmh 30.68 in1038.9 mb 0.00 in0.0 mm 0.00 in0.0 mm 0.00 in0.0 mm
07:05 AM 49.8°F9.9°C 38.1°F3.4°C 64% 2.7 mph ESE4.3 kmh ESE 11.4 mph18.3 kmh 30.68 in1038.9 mb 0.00 in0.0 mm 0.00 in0.0 mm 0.00 in0.0 mm
07:10 AM 49.8°F9.9°C 38.1°F3.4°C 64% 7.4 mph SE11.9 kmh SE 10.5 mph16.9 kmh 30.68 in1038.9 mb 0.00 in0.0 mm 0.00 in0.0 mm 0.00 in0.0 mm
07:15 AM 49.8°F9.9°C 38.1°F3.4°C 64% 2.5 mph ESE4.0 kmh ESE 10.5 mph16.9 kmh 30.68 in1038.9 mb 0.00 in0.0 mm 0.00 in0.0 mm 0.00 in0.0 mm
07:20 AM 49.8°F9.9°C 38.1°F3.4°C 64% Calm Calm 8.3 mph13.4 kmh 30.68 in1038.9 mb 0.00 in0.0 mm 0.00 in0.0 mm 0.00 in0.0 mm
07:25 AM 49.8°F9.9°C 37.7°F3.2°C 63% 1.8 mph SE2.9 kmh SE 8.3 mph13.4 kmh 30.68 in1038.9 mb 0.00 in0.0 mm 0.00 in0.0 mm 0.00 in0.0 mm
07:30 AM 50.2°F10.1°C 37.6°F3.1°C 62% 4.3 mph SE6.9 kmh SE 17.4 mph28.0 kmh 30.68 in1038.9 mb 0.00 in0.0 mm 0.00 in0.0 mm 0.00 in0.0 mm
07:35 AM 50.4°F10.2°C 37.8°F3.2°C 62% 2.0 mph S3.2 kmh S 19.0 mph30.6 kmh 30.68 in1038.9 mb 0.00 in0.0 mm 0.00 in0.0 mm 0.00 in0.0 mm
07:40 AM 50.4°F10.2°C 37.8°F3.2°C 62% 6.7 mph S10.8 kmh S 19.0 mph30.6 kmh 30.68 in1038.9 mb 0.00 in0.0 mm 0.00 in0.0 mm 0.00 in0.0 mm
07:45 AM 50.2°F10.1°C 37.6°F3.1°C 62% 14.8 mph S23.8 kmh S 15.7 mph25.3 kmh 30.67 in1038.6 mb 0.00 in0.0 mm 0.00 in0.0 mm 0.00 in0.0 mm
07:50 AM 50.4°F10.2°C 37.8°F3.2°C 62% 3.1 mph S5.0 kmh S 15.7 mph25.3 kmh 30.68 in1038.9 mb 0.00 in0.0 mm 0.00 in0.0 mm 0.00 in0.0 mm
07:55 AM 50.2°F10.1°C 37.6°F3.1°C 62% 3.4 mph ESE5.5 kmh ESE 11.0 mph17.7 kmh 30.68 in1038.9 mb 0.00 in0.0 mm 0.00 in0.0 mm 0.00 in0.0 mm
08:00 AM 50.2°F10.1°C 38.0°F3.3°C 63% 2.9 mph E4.7 kmh E 9.4 mph15.1 kmh 30.68 in1038.9 mb 0.00 in0.0 mm 0.00 in0.0 mm 0.00 in0.0 mm
08:05 AM 50.2°F10.1°C 38.4°F3.6°C 64% 5.8 mph SSE9.3 kmh SSE 16.1 mph25.9 kmh 30.68 in1038.9 mb 0.00 in0.0 mm 0.00 in0.0 mm 0.00 in0.0 mm
08:10 AM 50.2°F10.1°C 38.8°F3.8°C 65% 15.2 mph S24.5 kmh S 17.9 mph28.8 kmh 30.68 in1038.9 mb 0.00 in0.0 mm 0.00 in0.0 mm 0.00 in0.0 mm
08:15 AM 50.2°F10.1°C 38.8°F3.8°C 65% 1.8 mph SSW2.9 kmh SSW 17.9 mph28.8 kmh 30.68 in1038.9 mb 0.00 in0.0 mm 0.00 in0.0 mm 0.00 in0.0 mm
08:20 AM 49.8°F9.9°C 38.9°F3.8°C 66% 11.9 mph S19.2 kmh S 15.2 mph24.5 kmh 30.68 in1038.9 mb 0.00 in0.0 mm 0.00 in0.0 mm 0.00 in0.0 mm
08:25 AM 50.2°F10.1°C 39.6°F4.2°C 67% 10.7 mph S17.2 kmh S 15.7 mph25.3 kmh 30.68 in1038.9 mb 0.00 in0.0 mm 0.00 in0.0 mm 0.00 in0.0 mm
08:30 AM 50.2°F10.1°C 40.0°F4.4°C 68% 10.5 mph S16.9 kmh S 15.7 mph25.3 kmh 30.68 in1038.9 mb 0.00 in0.0 mm 0.00 in0.0 mm 0.00 in0.0 mm
08:35 AM 50.2°F10.1°C 40.0°F4.4°C 68% 12.8 mph S20.6 kmh S 14.8 mph23.8 kmh 30.68 in1038.9 mb 0.00 in0.0 mm 0.00 in0.0 mm 0.00 in0.0 mm
08:40 AM 49.8°F9.9°C 40.1°F4.5°C 69% 6.3 mph SSW10.1 kmh SSW 20.6 mph33.2 kmh 30.68 in1038.9 mb 0.00 in0.0 mm 0.00 in0.0 mm 0.00 in0.0 mm
08:45 AM 49.6°F9.8°C 40.3°F4.6°C 70% 9.2 mph SSW14.8 kmh SSW 21.7 mph34.9 kmh 30.69 in1039.3 mb 0.00 in0.0 mm 0.00 in0.0 mm 0.00 in0.0 mm
08:50 AM 49.6°F9.8°C 40.6°F4.8°C 71% 13.2 mph SSW21.2 kmh SSW 21.7 mph34.9 kmh 30.69 in1039.3 mb 0.00 in0.0 mm 0.00 in0.0 mm 0.00 in0.0 mm
08:55 AM 49.6°F9.8°C 40.6°F4.8°C 71% 4.7 mph S7.6 kmh S 18.3 mph29.5 kmh 30.68 in1038.9 mb 0.00 in0.0 mm 0.00 in0.0 mm 0.00 in0.0 mm
09:00 AM 49.8°F9.9°C 40.8°F4.9°C 71% 4.0 mph S6.4 kmh S 18.6 mph29.9 kmh 30.69 in1039.3 mb 0.00 in0.0 mm 0.00 in0.0 mm 0.00 in0.0 mm
09:05 AM 49.8°F9.9°C 40.8°F4.9°C 71% 3.6 mph S5.8 kmh S 18.6 mph29.9 kmh 30.69 in1039.3 mb 0.00 in0.0 mm 0.00 in0.0 mm 0.00 in0.0 mm
09:10 AM 50.2°F10.1°C 41.2°F5.1°C 71% 6.0 mph S9.7 kmh S 17.0 mph27.4 kmh 30.69 in1039.3 mb 0.00 in0.0 mm 0.00 in0.0 mm 0.00 in0.0 mm
09:15 AM 50.2°F10.1°C 40.8°F4.9°C 70% 12.8 mph S20.6 kmh S 17.0 mph27.4 kmh 30.70 in1039.6 mb 0.00 in0.0 mm 0.00 in0.0 mm 0.00 in0.0 mm
09:20 AM 50.4°F10.2°C 41.0°F5.0°C 70% 1.8 mph S2.9 kmh S 15.2 mph24.5 kmh 30.70 in1039.6 mb 0.00 in0.0 mm 0.00 in0.0 mm 0.00 in0.0 mm
09:25 AM 50.5°F10.3°C 41.2°F5.1°C 70% 4.7 mph S7.6 kmh S 19.2 mph30.9 kmh 30.70 in1039.6 mb 0.00 in0.0 mm 0.00 in0.0 mm 0.00 in0.0 mm
09:30 AM 50.4°F10.2°C 41.0°F5.0°C 70% 21.5 mph S34.6 kmh S 21.5 mph34.6 kmh 30.70 in1039.6 mb 0.00 in0.0 mm 0.00 in0.0 mm 0.00 in0.0 mm
09:35 AM 50.5°F10.3°C 41.2°F5.1°C 70% 24.8 mph S39.9 kmh S 24.8 mph39.9 kmh 30.70 in1039.6 mb 0.00 in0.0 mm 0.00 in0.0 mm 0.00 in0.0 mm
09:40 AM 50.5°F10.3°C 41.2°F5.1°C 70% 22.8 mph S36.7 kmh S 27.3 mph43.9 kmh 30.70 in1039.6 mb 0.00 in0.0 mm 0.00 in0.0 mm 0.00 in0.0 mm
09:45 AM 50.7°F10.4°C 40.9°F4.9°C 69% 18.1 mph SSW29.1 kmh SSW 27.3 mph43.9 kmh 30.70 in1039.6 mb 0.00 in0.0 mm 0.00 in0.0 mm 0.00 in0.0 mm
09:50 AM 50.9°F10.5°C 41.1°F5.1°C 69% 11.9 mph S19.2 kmh S 24.2 mph38.9 kmh 30.70 in1039.6 mb 0.00 in0.0 mm 0.00 in0.0 mm 0.00 in0.0 mm
09:55 AM 50.9°F10.5°C 41.1°F5.1°C 69% 8.5 mph S13.7 kmh S 24.2 mph38.9 kmh 30.70 in1039.6 mb 0.00 in0.0 mm 0.00 in0.0 mm 0.00 in0.0 mm
10:00 AM 51.1°F10.6°C 41.3°F5.2°C 69% 8.9 mph SSW14.3 kmh SSW 19.7 mph31.7 kmh 30.70 in1039.6 mb 0.00 in0.0 mm 0.00 in0.0 mm 0.00 in0.0 mm
10:05 AM 51.4°F10.8°C 41.7°F5.4°C 69% 5.8 mph S9.3 kmh S 19.7 mph31.7 kmh 30.70 in1039.6 mb 0.00 in0.0 mm 0.00 in0.0 mm 0.00 in0.0 mm
10:10 AM 51.6°F10.9°C 41.8°F5.4°C 69% 8.1 mph S13.0 kmh S 19.0 mph30.6 kmh 30.71 in1040.0 mb 0.00 in0.0 mm 0.00 in0.0 mm 0.00 in0.0 mm
10:15 AM 51.3°F10.7°C 41.5°F5.3°C 69% 6.3 mph SSW10.1 kmh SSW 17.2 mph27.7 kmh 30.70 in1039.6 mb 0.00 in0.0 mm 0.00 in0.0 mm 0.00 in0.0 mm
10:20 AM 51.1°F10.6°C 41.3°F5.2°C 69% 15.4 mph SSW24.8 kmh SSW 17.9 mph28.8 kmh 30.70 in1039.6 mb 0.00 in0.0 mm 0.00 in0.0 mm 0.00 in0.0 mm
10:25 AM 50.9°F10.5°C 41.1°F5.1°C 69% 10.7 mph S17.2 kmh S 18.6 mph29.9 kmh 30.70 in1039.6 mb 0.00 in0.0 mm 0.00 in0.0 mm 0.00 in0.0 mm
10:30 AM 51.1°F10.6°C 41.3°F5.2°C 69% 11.6 mph S18.7 kmh S 20.1 mph32.3 kmh 30.70 in1039.6 mb 0.00 in0.0 mm 0.00 in0.0 mm 0.00 in0.0 mm
10:35 AM 51.1°F10.6°C 41.3°F5.2°C 69% 15.0 mph S24.1 kmh S 25.3 mph40.7 kmh 30.70 in1039.6 mb 0.00 in0.0 mm 0.00 in0.0 mm 0.00 in0.0 mm
10:40 AM 51.1°F10.6°C 41.3°F5.2°C 69% 8.9 mph S14.3 kmh S 25.3 mph40.7 kmh 30.70 in1039.6 mb 0.00 in0.0 mm 0.00 in0.0 mm 0.00 in0.0 mm
10:45 AM 50.7°F10.4°C 40.9°F4.9°C 69% 11.0 mph S17.7 kmh S 16.8 mph27.0 kmh 30.70 in1039.6 mb 0.00 in0.0 mm 0.00 in0.0 mm 0.00 in0.0 mm
10:50 AM 50.7°F10.4°C 40.9°F4.9°C 69% 8.7 mph SSW14.0 kmh SSW 18.6 mph29.9 kmh 30.70 in1039.6 mb 0.00 in0.0 mm 0.00 in0.0 mm 0.00 in0.0 mm
10:55 AM 50.5°F10.3°C 41.2°F5.1°C 70% 13.0 mph S20.9 kmh S 18.8 mph30.3 kmh 30.70 in1039.6 mb 0.00 in0.0 mm 0.00 in0.0 mm 0.00 in0.0 mm
11:00 AM 50.4°F10.2°C 41.0°F5.0°C 70% 10.5 mph S16.9 kmh S 21.0 mph33.8 kmh 30.70 in1039.6 mb 0.00 in0.0 mm 0.00 in0.0 mm 0.00 in0.0 mm
11:05 AM 50.4°F10.2°C 41.0°F5.0°C 70% 16.6 mph S26.7 kmh S 23.0 mph37.0 kmh 30.70 in1039.6 mb 0.00 in0.0 mm 0.00 in0.0 mm 0.00 in0.0 mm
11:10 AM 50.9°F10.5°C 41.1°F5.1°C 69% 15.0 mph SSW24.1 kmh SSW 23.0 mph37.0 kmh 30.70 in1039.6 mb 0.00 in0.0 mm 0.00 in0.0 mm 0.00 in0.0 mm
11:15 AM 51.6°F10.9°C 41.4°F5.2°C 68% 17.4 mph S28.0 kmh S 21.9 mph35.2 kmh 30.69 in1039.3 mb 0.00 in0.0 mm 0.00 in0.0 mm 0.00 in0.0 mm
11:20 AM 52.0°F11.1°C 41.4°F5.2°C 67% 11.4 mph SSW18.3 kmh SSW 21.9 mph35.2 kmh 30.70 in1039.6 mb 0.00 in0.0 mm 0.00 in0.0 mm 0.00 in0.0 mm
11:25 AM 52.0°F11.1°C 41.8°F5.4°C 68% 3.8 mph SSW6.1 kmh SSW 21.7 mph34.9 kmh 30.70 in1039.6 mb 0.00 in0.0 mm 0.00 in0.0 mm 0.00 in0.0 mm
11:30 AM 52.3°F11.3°C 41.7°F5.4°C 67% 10.3 mph S16.6 kmh S 18.6 mph29.9 kmh 30.70 in1039.6 mb 0.00 in0.0 mm 0.00 in0.0 mm 0.00 in0.0 mm
11:35 AM 52.7°F11.5°C 42.0°F5.6°C 67% 13.0 mph S20.9 kmh S 16.8 mph27.0 kmh 30.69 in1039.3 mb 0.00 in0.0 mm 0.00 in0.0 mm 0.00 in0.0 mm
11:40 AM 53.2°F11.8°C 42.1°F5.6°C 66% 9.2 mph S14.8 kmh S 16.8 mph27.0 kmh 30.69 in1039.3 mb 0.00 in0.0 mm 0.00 in0.0 mm 0.00 in0.0 mm
11:45 AM 53.2°F11.8°C 42.1°F5.6°C 66% 2.7 mph S4.3 kmh S 17.2 mph27.7 kmh 30.69 in1039.3 mb 0.00 in0.0 mm 0.00 in0.0 mm 0.00 in0.0 mm
11:50 AM 52.9°F11.6°C 41.8°F5.4°C 66% 6.3 mph SSW10.1 kmh SSW 18.6 mph29.9 kmh 30.68 in1038.9 mb 0.00 in0.0 mm 0.00 in0.0 mm 0.00 in0.0 mm
11:55 AM 52.9°F11.6°C 41.8°F5.4°C 66% 5.4 mph S8.7 kmh S 18.6 mph29.9 kmh 30.68 in1038.9 mb 0.00 in0.0 mm 0.00 in0.0 mm 0.00 in0.0 mm
12:00 PM 53.8°F12.1°C 42.6°F5.9°C 66% Calm Calm 12.1 mph19.5 kmh 30.68 in1038.9 mb 0.00 in0.0 mm 0.00 in0.0 mm 0.00 in0.0 mm
12:05 PM 54.5°F12.5°C 42.9°F6.1°C 65% 8.9 mph SE14.3 kmh SE 9.8 mph15.8 kmh 30.67 in1038.6 mb 0.00 in0.0 mm 0.00 in0.0 mm 0.00 in0.0 mm
12:10 PM 55.0°F12.8°C 42.6°F5.9°C 63% 4.7 mph SE7.6 kmh SE 11.9 mph19.2 kmh 30.67 in1038.6 mb 0.00 in0.0 mm 0.00 in0.0 mm 0.00 in0.0 mm
12:15 PM 55.2°F12.9°C 42.8°F6.0°C 63% 5.4 mph E8.7 kmh E 11.9 mph19.2 kmh 30.67 in1038.6 mb 0.00 in0.0 mm 0.00 in0.0 mm 0.00 in0.0 mm
12:20 PM 55.8°F13.2°C 42.9°F6.1°C 62% 2.9 mph E4.7 kmh E 10.3 mph16.6 kmh 30.67 in1038.6 mb 0.00 in0.0 mm 0.00 in0.0 mm 0.00 in0.0 mm
12:25 PM 56.1°F13.4°C 42.8°F6.0°C 61% 5.4 mph SE8.7 kmh SE 9.8 mph15.8 kmh 30.66 in1038.3 mb 0.00 in0.0 mm 0.00 in0.0 mm 0.00 in0.0 mm
12:30 PM 56.5°F13.6°C 42.8°F6.0°C 60% 6.0 mph E9.7 kmh E 17.4 mph28.0 kmh 30.66 in1038.3 mb 0.00 in0.0 mm 0.00 in0.0 mm 0.00 in0.0 mm
12:35 PM 56.3°F13.5°C 42.2°F5.7°C 59% 2.7 mph E4.3 kmh E 17.4 mph28.0 kmh 30.66 in1038.3 mb 0.00 in0.0 mm 0.00 in0.0 mm 0.00 in0.0 mm
12:40 PM 56.8°F13.8°C 42.7°F5.9°C 59% 1.6 mph E2.6 kmh E 16.6 mph26.7 kmh 30.66 in1038.3 mb 0.00 in0.0 mm 0.00 in0.0 mm 0.00 in0.0 mm
12:45 PM 57.0°F13.9°C 42.9°F6.1°C 59% 3.1 mph ESE5.0 kmh ESE 12.3 mph19.8 kmh 30.66 in1038.3 mb 0.00 in0.0 mm 0.00 in0.0 mm 0.00 in0.0 mm
12:50 PM 57.0°F13.9°C 42.9°F6.1°C 59% 1.6 mph ESE2.6 kmh ESE 12.3 mph19.8 kmh 30.66 in1038.3 mb 0.00 in0.0 mm 0.00 in0.0 mm 0.00 in0.0 mm
12:55 PM 57.0°F13.9°C 42.9°F6.1°C 59% 9.8 mph E15.8 kmh E 13.6 mph21.9 kmh 30.65 in1037.9 mb 0.00 in0.0 mm 0.00 in0.0 mm 0.00 in0.0 mm
01:00 PM 57.0°F13.9°C 42.9°F6.1°C 59% 11.2 mph E18.0 kmh E 15.9 mph25.6 kmh 30.65 in1037.9 mb 0.00 in0.0 mm 0.00 in0.0 mm 0.00 in0.0 mm
01:05 PM 57.0°F13.9°C 42.9°F6.1°C 59% 1.3 mph E2.1 kmh E 17.9 mph28.8 kmh 30.65 in1037.9 mb 0.00 in0.0 mm 0.00 in0.0 mm 0.00 in0.0 mm
01:10 PM 57.4°F14.1°C 42.7°F5.9°C 58% 1.3 mph E2.1 kmh E 17.9 mph28.8 kmh 30.66 in1038.3 mb 0.00 in0.0 mm 0.00 in0.0 mm 0.00 in0.0 mm
01:15 PM 57.4°F14.1°C 42.3°F5.7°C 57% 3.6 mph ESE5.8 kmh ESE 12.1 mph19.5 kmh 30.66 in1038.3 mb 0.00 in0.0 mm 0.00 in0.0 mm 0.00 in0.0 mm
01:20 PM 57.4°F14.1°C 42.3°F5.7°C 57% 5.8 mph E9.3 kmh E 11.4 mph18.3 kmh 30.66 in1038.3 mb 0.00 in0.0 mm 0.00 in0.0 mm 0.00 in0.0 mm
01:25 PM 57.7°F14.3°C 42.6°F5.9°C 57% 4.9 mph ESE7.9 kmh ESE 9.2 mph14.8 kmh 30.66 in1038.3 mb 0.00 in0.0 mm 0.00 in0.0 mm 0.00 in0.0 mm
01:30 PM 57.7°F14.3°C 42.6°F5.9°C 57% 2.5 mph ESE4.0 kmh ESE 11.9 mph19.2 kmh 30.66 in1038.3 mb 0.00 in0.0 mm 0.00 in0.0 mm 0.00 in0.0 mm
01:35 PM 57.9°F14.4°C 43.2°F6.2°C 58% 1.3 mph ESE2.1 kmh ESE 11.9 mph19.2 kmh 30.66 in1038.3 mb 0.00 in0.0 mm 0.00 in0.0 mm 0.00 in0.0 mm
01:40 PM 58.3°F14.6°C 43.1°F6.2°C 57% 5.8 mph ESE9.3 kmh ESE 9.6 mph15.4 kmh 30.66 in1038.3 mb 0.00 in0.0 mm 0.00 in0.0 mm 0.00 in0.0 mm
01:45 PM 58.3°F14.6°C 43.1°F6.2°C 57% 6.7 mph E10.8 kmh E 10.7 mph17.2 kmh 30.66 in1038.3 mb 0.00 in0.0 mm 0.00 in0.0 mm 0.00 in0.0 mm
01:50 PM 57.9°F14.4°C 42.3°F5.7°C 56% 13.4 mph E21.6 kmh E 17.0 mph27.4 kmh 30.66 in1038.3 mb 0.00 in0.0 mm 0.00 in0.0 mm 0.00 in0.0 mm
01:55 PM 57.7°F14.3°C 42.6°F5.9°C 57% 1.3 mph SE2.1 kmh SE 17.0 mph27.4 kmh 30.66 in1038.3 mb 0.00 in0.0 mm 0.00 in0.0 mm 0.00 in0.0 mm
02:00 PM 57.7°F14.3°C 42.6°F5.9°C 57% 19.2 mph S30.9 kmh S 22.6 mph36.4 kmh 30.66 in1038.3 mb 0.00 in0.0 mm 0.00 in0.0 mm 0.00 in0.0 mm
02:05 PM 57.0°F13.9°C 42.9°F6.1°C 59% 3.6 mph S5.8 kmh S 22.6 mph36.4 kmh 30.66 in1038.3 mb 0.00 in0.0 mm 0.00 in0.0 mm 0.00 in0.0 mm
02:10 PM 57.4°F14.1°C 42.7°F5.9°C 58% 15.7 mph SSW25.3 kmh SSW 22.4 mph36.0 kmh 30.66 in1038.3 mb 0.00 in0.0 mm 0.00 in0.0 mm 0.00 in0.0 mm
02:15 PM 57.4°F14.1°C 42.3°F5.7°C 57% 4.9 mph SSW7.9 kmh SSW 17.7 mph28.5 kmh 30.66 in1038.3 mb 0.00 in0.0 mm 0.00 in0.0 mm 0.00 in0.0 mm
02:20 PM 57.0°F13.9°C 42.9°F6.1°C 59% 10.3 mph SSW16.6 kmh SSW 16.8 mph27.0 kmh 30.65 in1037.9 mb 0.00 in0.0 mm 0.00 in0.0 mm 0.00 in0.0 mm
02:25 PM 57.0°F13.9°C 42.9°F6.1°C 59% 3.1 mph SSW5.0 kmh SSW 16.6 mph26.7 kmh 30.65 in1037.9 mb 0.00 in0.0 mm 0.00 in0.0 mm 0.00 in0.0 mm
02:30 PM 57.4°F14.1°C 42.7°F5.9°C 58% 2.0 mph SSW3.2 kmh SSW 14.5 mph23.3 kmh 30.65 in1037.9 mb 0.00 in0.0 mm 0.00 in0.0 mm 0.00 in0.0 mm
02:35 PM 57.4°F14.1°C 42.7°F5.9°C 58% 9.8 mph S15.8 kmh S 13.4 mph21.6 kmh 30.65 in1037.9 mb 0.00 in0.0 mm 0.00 in0.0 mm 0.00 in0.0 mm
02:40 PM 57.4°F14.1°C 42.7°F5.9°C 57% 6.7 mph SE10.8 kmh SE 13.0 mph20.9 kmh 30.64 in1037.6 mb 0.00 in0.0 mm 0.00 in0.0 mm 0.00 in0.0 mm
02:45 PM 57.4°F14.1°C 41.8°F5.4°C 56% 2.7 mph SE4.3 kmh SE 16.3 mph26.2 kmh 30.65 in1037.9 mb 0.00 in0.0 mm 0.00 in0.0 mm 0.00 in0.0 mm
02:50 PM 57.4°F14.1°C 42.3°F5.7°C 57% 3.8 mph SE6.1 kmh SE 16.3 mph26.2 kmh 30.65 in1037.9 mb 0.00 in0.0 mm 0.00 in0.0 mm 0.00 in0.0 mm
02:55 PM 57.4°F14.1°C 41.8°F5.4°C 56% 6.9 mph SE11.1 kmh SE 11.0 mph17.7 kmh 30.65 in1037.9 mb 0.00 in0.0 mm 0.00 in0.0 mm 0.00 in0.0 mm
03:00 PM 57.4°F14.1°C 41.8°F5.4°C 56% 2.7 mph SE4.3 kmh SE 11.0 mph17.7 kmh 30.65 in1037.9 mb 0.00 in0.0 mm 0.00 in0.0 mm 0.00 in0.0 mm
03:05 PM 57.4°F14.1°C 41.8°F5.4°C 56% 1.8 mph SE2.9 kmh SE 7.4 mph11.9 kmh 30.66 in1038.3 mb 0.00 in0.0 mm 0.00 in0.0 mm 0.00 in0.0 mm
03:10 PM 57.0°F13.9°C 41.5°F5.3°C 56% 2.5 mph SE4.0 kmh SE 7.8 mph12.6 kmh 30.66 in1038.3 mb 0.00 in0.0 mm 0.00 in0.0 mm 0.00 in0.0 mm
03:15 PM 56.5°F13.6°C 41.4°F5.2°C 57% 7.8 mph ESE12.6 kmh ESE 11.4 mph18.3 kmh 30.65 in1037.9 mb 0.00 in0.0 mm 0.00 in0.0 mm 0.00 in0.0 mm
03:20 PM 56.3°F13.5°C 41.2°F5.1°C 57% 5.4 mph E8.7 kmh E 12.3 mph19.8 kmh 30.65 in1037.9 mb 0.00 in0.0 mm 0.00 in0.0 mm 0.00 in0.0 mm
03:25 PM 56.1°F13.4°C 41.0°F5.0°C 57% 8.3 mph ENE13.4 kmh ENE 15.4 mph24.8 kmh 30.65 in1037.9 mb 0.00 in0.0 mm 0.00 in0.0 mm 0.00 in0.0 mm
03:30 PM 56.1°F13.4°C 41.0°F5.0°C 57% 10.5 mph ENE16.9 kmh ENE 15.4 mph24.8 kmh 30.63 in1037.3 mb 0.00 in0.0 mm 0.00 in0.0 mm 0.00 in0.0 mm
03:35 PM 55.6°F13.1°C 40.5°F4.7°C 57% 7.6 mph NE12.2 kmh NE 13.2 mph21.2 kmh 30.65 in1037.9 mb 0.00 in0.0 mm 0.00 in0.0 mm 0.00 in0.0 mm
03:40 PM 55.6°F13.1°C 41.0°F5.0°C 58% 2.5 mph NE4.0 kmh NE 17.7 mph28.5 kmh 30.66 in1038.3 mb 0.00 in0.0 mm 0.00 in0.0 mm 0.00 in0.0 mm
03:45 PM 55.8°F13.2°C 41.1°F5.1°C 58% Calm Calm 17.7 mph28.5 kmh 30.65 in1037.9 mb 0.00 in0.0 mm 0.00 in0.0 mm 0.00 in0.0 mm
03:50 PM 55.9°F13.3°C 41.3°F5.2°C 58% 2.0 mph E3.2 kmh E 11.6 mph18.7 kmh 30.66 in1038.3 mb 0.00 in0.0 mm 0.00 in0.0 mm 0.00 in0.0 mm
03:55 PM 55.9°F13.3°C 41.3°F5.2°C 58% 2.9 mph ESE4.7 kmh ESE 8.5 mph13.7 kmh 30.65 in1037.9 mb 0.00 in0.0 mm 0.00 in0.0 mm 0.00 in0.0 mm
04:00 PM 55.4°F13.0°C 40.8°F4.9°C 58% 6.0 mph E9.7 kmh E 12.8 mph20.6 kmh 30.66 in1038.3 mb 0.00 in0.0 mm 0.00 in0.0 mm 0.00 in0.0 mm
04:05 PM 55.2°F12.9°C 41.1°F5.1°C 59% 3.8 mph NE6.1 kmh NE 14.3 mph23.0 kmh 30.66 in1038.3 mb 0.00 in0.0 mm 0.00 in0.0 mm 0.00 in0.0 mm
04:10 PM 55.0°F12.8°C 40.5°F4.7°C 58% 1.3 mph NE2.1 kmh NE 14.8 mph23.8 kmh 30.66 in1038.3 mb 0.00 in0.0 mm 0.00 in0.0 mm 0.00 in0.0 mm
04:15 PM 55.2°F12.9°C 40.6°F4.8°C 58% 11.6 mph NE18.7 kmh NE 14.8 mph23.8 kmh 30.66 in1038.3 mb 0.00 in0.0 mm 0.00 in0.0 mm 0.00 in0.0 mm
04:20 PM 55.0°F12.8°C 40.5°F4.7°C 58% 8.7 mph ENE14.0 kmh ENE 11.9 mph19.2 kmh 30.65 in1037.9 mb 0.00 in0.0 mm 0.00 in0.0 mm 0.00 in0.0 mm
04:25 PM 55.0°F12.8°C 40.0°F4.4°C 57% 1.8 mph E2.9 kmh E 11.9 mph19.2 kmh 30.65 in1037.9 mb 0.00 in0.0 mm 0.00 in0.0 mm 0.00 in0.0 mm
04:30 PM 54.9°F12.7°C 39.4°F4.1°C 56% Calm Calm 10.3 mph16.6 kmh 30.65 in1037.9 mb 0.00 in0.0 mm 0.00 in0.0 mm 0.00 in0.0 mm
04:35 PM 54.5°F12.5°C 39.0°F3.9°C 56% 5.4 mph ENE8.7 kmh ENE 19.5 mph31.4 kmh 30.64 in1037.6 mb 0.00 in0.0 mm 0.00 in0.0 mm 0.00 in0.0 mm
04:40 PM 54.1°F12.3°C 38.7°F3.7°C 56% Calm Calm 19.5 mph31.4 kmh 30.64 in1037.6 mb 0.00 in0.0 mm 0.00 in0.0 mm 0.00 in0.0 mm
04:45 PM 54.0°F12.2°C 38.6°F3.7°C 56% 1.8 mph ESE2.9 kmh ESE 9.2 mph14.8 kmh 30.65 in1037.9 mb 0.00 in0.0 mm 0.00 in0.0 mm 0.00 in0.0 mm
04:50 PM 53.8°F12.1°C 38.4°F3.6°C 56% 1.8 mph SE2.9 kmh SE 9.2 mph14.8 kmh 30.64 in1037.6 mb 0.00 in0.0 mm 0.00 in0.0 mm 0.00 in0.0 mm
04:55 PM 53.6°F12.0°C 38.7°F3.7°C 57% 3.4 mph SE5.5 kmh SE 8.5 mph13.7 kmh 30.64 in1037.6 mb 0.00 in0.0 mm 0.00 in0.0 mm 0.00 in0.0 mm
05:00 PM 53.4°F11.9°C 38.5°F3.6°C 57% 2.2 mph SE3.5 kmh SE 11.9 mph19.2 kmh 30.64 in1037.6 mb 0.00 in0.0 mm 0.00 in0.0 mm 0.00 in0.0 mm
05:05 PM 53.4°F11.9°C 38.5°F3.6°C 57% 3.1 mph SE5.0 kmh SE 11.9 mph19.2 kmh 30.64 in1037.6 mb 0.00 in0.0 mm 0.00 in0.0 mm 0.00 in0.0 mm
05:10 PM 53.2°F11.8°C 38.8°F3.8°C 58% Calm Calm 10.1 mph16.3 kmh 30.63 in1037.3 mb 0.00 in0.0 mm 0.00 in0.0 mm 0.00 in0.0 mm
05:15 PM 53.2°F11.8°C 38.8°F3.8°C 58% Calm Calm 10.1 mph16.3 kmh 30.63 in1037.3 mb 0.00 in0.0 mm 0.00 in0.0 mm 0.00 in0.0 mm
05:20 PM 52.9°F11.6°C 38.4°F3.6°C 58% 2.2 mph SE3.5 kmh SE 10.1 mph16.3 kmh 30.63 in1037.3 mb 0.00 in0.0 mm 0.00 in0.0 mm 0.00 in0.0 mm
05:25 PM 52.7°F11.5°C 38.7°F3.7°C 59% 5.8 mph E9.3 kmh E 10.5 mph16.9 kmh 30.62 in1036.9 mb 0.00 in0.0 mm 0.00 in0.0 mm 0.00 in0.0 mm
05:30 PM 52.5°F11.4°C 39.0°F3.9°C 60% 1.6 mph E2.6 kmh E 16.6 mph26.7 kmh 30.62 in1036.9 mb 0.00 in0.0 mm 0.00 in0.0 mm 0.00 in0.0 mm
05:35 PM 52.3°F11.3°C 38.8°F3.8°C 60% 3.1 mph E5.0 kmh E 16.6 mph26.7 kmh 30.62 in1036.9 mb 0.00 in0.0 mm 0.00 in0.0 mm 0.00 in0.0 mm
05:40 PM 52.3°F11.3°C 38.8°F3.8°C 60% 5.1 mph E8.2 kmh E 9.2 mph14.8 kmh 30.62 in1036.9 mb 0.00 in0.0 mm 0.00 in0.0 mm 0.00 in0.0 mm
05:45 PM 52.2°F11.2°C 39.1°F3.9°C 61% 2.2 mph SE3.5 kmh SE 8.9 mph14.3 kmh 30.62 in1036.9 mb 0.00 in0.0 mm 0.00 in0.0 mm 0.00 in0.0 mm
05:50 PM 52.0°F11.1°C 38.9°F3.8°C 61% 2.5 mph SE4.0 kmh SE 12.1 mph19.5 kmh 30.61 in1036.6 mb 0.00 in0.0 mm 0.00 in0.0 mm 0.00 in0.0 mm
05:55 PM 51.8°F11.0°C 38.7°F3.7°C 61% 7.6 mph SE12.2 kmh SE 12.1 mph19.5 kmh 30.61 in1036.6 mb 0.00 in0.0 mm 0.00 in0.0 mm 0.00 in0.0 mm
06:00 PM 51.6°F10.9°C 38.9°F3.8°C 62% Calm Calm 11.9 mph19.2 kmh 30.62 in1036.9 mb 0.00 in0.0 mm 0.00 in0.0 mm 0.00 in0.0 mm
06:05 PM 51.4°F10.8°C 39.2°F4.0°C 63% 7.2 mph SSE11.6 kmh SSE 11.9 mph19.2 kmh 30.61 in1036.6 mb 0.00 in0.0 mm 0.00 in0.0 mm 0.00 in0.0 mm
06:10 PM 51.3°F10.7°C 39.0°F3.9°C 63% 3.8 mph SE6.1 kmh SE 11.9 mph19.2 kmh 30.61 in1036.6 mb 0.00 in0.0 mm 0.00 in0.0 mm 0.00 in0.0 mm
06:15 PM 51.1°F10.6°C 38.9°F3.8°C 63% 2.2 mph SE3.5 kmh SE 14.3 mph23.0 kmh 30.62 in1036.9 mb 0.00 in0.0 mm 0.00 in0.0 mm 0.00 in0.0 mm
06:20 PM 50.9°F10.5°C 38.3°F3.5°C 62% 4.5 mph SE7.2 kmh SE 14.3 mph23.0 kmh 30.62 in1036.9 mb 0.00 in0.0 mm 0.00 in0.0 mm 0.00 in0.0 mm
06:25 PM 50.7°F10.4°C 38.1°F3.4°C 62% 4.0 mph SE6.4 kmh SE 14.3 mph23.0 kmh 30.62 in1036.9 mb 0.00 in0.0 mm 0.00 in0.0 mm 0.00 in0.0 mm
06:30 PM 50.7°F10.4°C 38.1°F3.4°C 62% 15.7 mph S25.3 kmh S 16.6 mph26.7 kmh 30.62 in1036.9 mb 0.00 in0.0 mm 0.00 in0.0 mm 0.00 in0.0 mm
06:35 PM 50.7°F10.4°C 37.7°F3.2°C 61% 2.0 mph SSW3.2 kmh SSW 19.0 mph30.6 kmh 30.62 in1036.9 mb 0.00 in0.0 mm 0.00 in0.0 mm 0.00 in0.0 mm
06:40 PM 50.7°F10.4°C 37.7°F3.2°C 61% Calm Calm 19.0 mph30.6 kmh 30.62 in1036.9 mb 0.00 in0.0 mm 0.00 in0.0 mm 0.00 in0.0 mm
06:45 PM 50.5°F10.3°C 37.6°F3.1°C 61% 3.1 mph S5.0 kmh S 18.8 mph30.3 kmh 30.62 in1036.9 mb 0.00 in0.0 mm 0.00 in0.0 mm 0.00 in0.0 mm
06:50 PM 50.5°F10.3°C 38.0°F3.3°C 62% 10.3 mph S16.6 kmh S 20.1 mph32.3 kmh 30.62 in1036.9 mb 0.00 in0.0 mm 0.00 in0.0 mm 0.00 in0.0 mm
06:55 PM 50.2°F10.1°C 38.4°F3.6°C 64% 12.8 mph S20.6 kmh S 20.1 mph32.3 kmh 30.63 in1037.3 mb 0.00 in0.0 mm 0.00 in0.0 mm 0.00 in0.0 mm
07:00 PM 49.8°F9.9°C 38.9°F3.8°C 66% 15.4 mph S24.8 kmh S 21.3 mph34.3 kmh 30.63 in1037.3 mb 0.00 in0.0 mm 0.00 in0.0 mm 0.00 in0.0 mm
07:05 PM 49.3°F9.6°C 38.8°F3.8°C 67% 7.4 mph SSW11.9 kmh SSW 21.3 mph34.3 kmh 30.63 in1037.3 mb 0.00 in0.0 mm 0.00 in0.0 mm 0.00 in0.0 mm
07:10 PM 48.9°F9.4°C 38.8°F3.8°C 68% 12.8 mph SSW20.6 kmh SSW 19.7 mph31.7 kmh 30.63 in1037.3 mb 0.00 in0.0 mm 0.00 in0.0 mm 0.00 in0.0 mm
07:15 PM 48.9°F9.4°C 39.6°F4.2°C 70% 9.6 mph S15.4 kmh S 19.7 mph31.7 kmh 30.63 in1037.3 mb 0.00 in0.0 mm 0.00 in0.0 mm 0.00 in0.0 mm
07:20 PM 48.7°F9.3°C 39.4°F4.1°C 70% 13.2 mph S21.2 kmh S 18.8 mph30.3 kmh 30.64 in1037.6 mb 0.00 in0.0 mm 0.00 in0.0 mm 0.00 in0.0 mm
07:25 PM 48.7°F9.3°C 39.4°F4.1°C 70% 4.7 mph SSW7.6 kmh SSW 15.9 mph25.6 kmh 30.64 in1037.6 mb 0.00 in0.0 mm 0.00 in0.0 mm 0.00 in0.0 mm
07:30 PM 48.6°F9.2°C 39.5°F4.2°C 71% 4.0 mph S6.4 kmh S 13.2 mph21.2 kmh 30.65 in1037.9 mb 0.00 in0.0 mm 0.00 in0.0 mm 0.00 in0.0 mm
07:35 PM 48.4°F9.1°C 39.7°F4.3°C 72% 5.4 mph E8.7 kmh E 12.5 mph20.1 kmh 30.65 in1037.9 mb 0.00 in0.0 mm 0.00 in0.0 mm 0.00 in0.0 mm
07:40 PM 48.4°F9.1°C 40.0°F4.4°C 73% 4.5 mph SSE7.2 kmh SSE 18.3 mph29.5 kmh 30.66 in1038.3 mb 0.00 in0.0 mm 0.00 in0.0 mm 0.00 in0.0 mm
07:45 PM 48.2°F9.0°C 39.9°F4.4°C 73% 9.4 mph S15.1 kmh S 18.3 mph29.5 kmh 30.65 in1037.9 mb 0.00 in0.0 mm 0.00 in0.0 mm 0.00 in0.0 mm
07:50 PM 48.2°F9.0°C 40.2°F4.6°C 74% 15.7 mph S25.3 kmh S 20.1 mph32.3 kmh 30.66 in1038.3 mb 0.00 in0.0 mm 0.00 in0.0 mm 0.00 in0.0 mm
07:55 PM 48.0°F8.9°C 40.0°F4.4°C 74% 4.7 mph S7.6 kmh S 20.1 mph32.3 kmh 30.65 in1037.9 mb 0.00 in0.0 mm 0.00 in0.0 mm 0.00 in0.0 mm
08:00 PM 48.0°F8.9°C 40.0°F4.4°C 74% 23.5 mph S37.8 kmh S 23.5 mph37.8 kmh 30.66 in1038.3 mb 0.00 in0.0 mm 0.00 in0.0 mm 0.00 in0.0 mm
08:05 PM 48.0°F8.9°C 40.0°F4.4°C 74% 7.2 mph SSW11.6 kmh SSW 23.5 mph37.8 kmh 30.66 in1038.3 mb 0.00 in0.0 mm 0.00 in0.0 mm 0.00 in0.0 mm
08:10 PM 48.0°F8.9°C 40.0°F4.4°C 74% 6.3 mph SSW10.1 kmh SSW 23.5 mph37.8 kmh 30.66 in1038.3 mb 0.00 in0.0 mm 0.00 in0.0 mm 0.00 in0.0 mm
08:15 PM 48.0°F8.9°C 40.0°F4.4°C 74% 10.1 mph S16.3 kmh S 19.7 mph31.7 kmh 30.66 in1038.3 mb 0.00 in0.0 mm 0.00 in0.0 mm 0.00 in0.0 mm
08:20 PM 48.0°F8.9°C 40.0°F4.4°C 74% 12.3 mph S19.8 kmh S 20.1 mph32.3 kmh 30.66 in1038.3 mb 0.00 in0.0 mm 0.00 in0.0 mm 0.00 in0.0 mm
08:25 PM 48.0°F8.9°C 40.0°F4.4°C 74% 8.9 mph S14.3 kmh S 20.1 mph32.3 kmh 30.67 in1038.6 mb 0.00 in0.0 mm 0.00 in0.0 mm 0.00 in0.0 mm
08:30 PM 48.0°F8.9°C 40.0°F4.4°C 74% Calm Calm 12.8 mph20.6 kmh 30.68 in1038.9 mb 0.00 in0.0 mm 0.00 in0.0 mm 0.00 in0.0 mm
08:35 PM 48.0°F8.9°C 40.0°F4.4°C 74% 2.5 mph SSE4.0 kmh SSE 10.3 mph16.6 kmh 30.68 in1038.9 mb 0.00 in0.0 mm 0.00 in0.0 mm 0.00 in0.0 mm
08:40 PM 48.0°F8.9°C 40.0°F4.4°C 74% 1.3 mph E2.1 kmh E 6.9 mph11.1 kmh 30.67 in1038.6 mb 0.00 in0.0 mm 0.00 in0.0 mm 0.00 in0.0 mm
08:45 PM 48.0°F8.9°C 40.0°F4.4°C 74% 1.1 mph SW1.8 kmh SW 14.3 mph23.0 kmh 30.67 in1038.6 mb 0.00 in0.0 mm 0.00 in0.0 mm 0.00 in0.0 mm
08:50 PM 47.8°F8.8°C 39.9°F4.4°C 74% Calm Calm 14.3 mph23.0 kmh 30.67 in1038.6 mb 0.00 in0.0 mm 0.00 in0.0 mm 0.00 in0.0 mm
08:55 PM 48.0°F8.9°C 40.0°F4.4°C 74% 2.0 mph ESE3.2 kmh ESE 10.1 mph16.3 kmh 30.67 in1038.6 mb 0.00 in0.0 mm 0.00 in0.0 mm 0.00 in0.0 mm
09:00 PM 48.0°F8.9°C 40.0°F4.4°C 74% 5.1 mph ENE8.2 kmh ENE 16.6 mph26.7 kmh 30.67 in1038.6 mb 0.00 in0.0 mm 0.00 in0.0 mm 0.00 in0.0 mm
09:05 PM 48.0°F8.9°C 40.4°F4.7°C 75% 7.4 mph NE11.9 kmh NE 19.0 mph30.6 kmh 30.68 in1038.9 mb 0.00 in0.0 mm 0.00 in0.0 mm 0.00 in0.0 mm
09:15 PM 48.0°F8.9°C 40.4°F4.7°C 75% 11.0 mph NE17.7 kmh NE 14.3 mph23.0 kmh 30.68 in1038.9 mb 0.00 in0.0 mm 0.00 in0.0 mm 0.00 in0.0 mm
09:20 PM 48.0°F8.9°C 40.4°F4.7°C 75% 3.8 mph NE6.1 kmh NE 17.0 mph27.4 kmh 30.67 in1038.6 mb 0.00 in0.0 mm 0.00 in0.0 mm 0.00 in0.0 mm
09:25 PM 48.0°F8.9°C 40.7°F4.8°C 76% 7.6 mph NE12.2 kmh NE 17.0 mph27.4 kmh 30.68 in1038.9 mb 0.00 in0.0 mm 0.00 in0.0 mm 0.00 in0.0 mm
09:30 PM 48.0°F8.9°C 40.7°F4.8°C 76% 15.7 mph NE25.3 kmh NE 16.6 mph26.7 kmh 30.68 in1038.9 mb 0.00 in0.0 mm 0.00 in0.0 mm 0.00 in0.0 mm
09:35 PM 48.0°F8.9°C 41.1°F5.1°C 77% 4.9 mph NE7.9 kmh NE 20.1 mph32.3 kmh 30.68 in1038.9 mb 0.00 in0.0 mm 0.00 in0.0 mm 0.00 in0.0 mm
09:45 PM 48.0°F8.9°C 41.1°F5.1°C 77% 10.5 mph NE16.9 kmh NE 19.7 mph31.7 kmh 30.68 in1038.9 mb 0.00 in0.0 mm 0.00 in0.0 mm 0.00 in0.0 mm
09:50 PM 47.8°F8.8°C 40.9°F4.9°C 77% 17.7 mph NE28.5 kmh NE 18.8 mph30.3 kmh 30.66 in1038.3 mb 0.00 in0.0 mm 0.00 in0.0 mm 0.00 in0.0 mm
09:55 PM 47.8°F8.8°C 40.9°F4.9°C 77% 11.9 mph NE19.2 kmh NE 21.0 mph33.8 kmh 30.66 in1038.3 mb 0.00 in0.0 mm 0.00 in0.0 mm 0.00 in0.0 mm
10:00 PM 47.8°F8.8°C 40.9°F4.9°C 77% 14.1 mph NE22.7 kmh NE 21.0 mph33.8 kmh 30.66 in1038.3 mb 0.00 in0.0 mm 0.00 in0.0 mm 0.00 in0.0 mm
10:05 PM 47.8°F8.8°C 40.9°F4.9°C 77% 7.6 mph ENE12.2 kmh ENE 20.6 mph33.2 kmh 30.65 in1037.9 mb 0.00 in0.0 mm 0.00 in0.0 mm 0.00 in0.0 mm
10:10 PM 47.8°F8.8°C 40.9°F4.9°C 77% 11.0 mph ENE17.7 kmh ENE 21.0 mph33.8 kmh 30.66 in1038.3 mb 0.00 in0.0 mm 0.00 in0.0 mm 0.00 in0.0 mm
10:15 PM 47.8°F8.8°C 40.9°F4.9°C 77% 12.5 mph NE20.1 kmh NE 21.0 mph33.8 kmh 30.66 in1038.3 mb 0.00 in0.0 mm 0.00 in0.0 mm 0.00 in0.0 mm
10:20 PM 47.8°F8.8°C 40.9°F4.9°C 77% 6.7 mph NE10.8 kmh NE 20.6 mph33.2 kmh 30.66 in1038.3 mb 0.00 in0.0 mm 0.00 in0.0 mm 0.00 in0.0 mm
10:25 PM 47.8°F8.8°C 40.9°F4.9°C 77% 11.2 mph ENE18.0 kmh ENE 18.3 mph29.5 kmh 30.66 in1038.3 mb 0.00 in0.0 mm 0.00 in0.0 mm 0.00 in0.0 mm
10:30 PM 47.8°F8.8°C 40.9°F4.9°C 77% 5.4 mph ENE8.7 kmh ENE 15.9 mph25.6 kmh 30.66 in1038.3 mb 0.00 in0.0 mm 0.00 in0.0 mm 0.00 in0.0 mm
10:35 PM 47.8°F8.8°C 40.9°F4.9°C 77% 2.9 mph NE4.7 kmh NE 15.9 mph25.6 kmh 30.66 in1038.3 mb 0.00 in0.0 mm 0.00 in0.0 mm 0.00 in0.0 mm
10:40 PM 47.8°F8.8°C 40.6°F4.8°C 76% 3.1 mph ENE5.0 kmh ENE 14.8 mph23.8 kmh 30.66 in1038.3 mb 0.00 in0.0 mm 0.00 in0.0 mm 0.00 in0.0 mm
10:45 PM 48.0°F8.9°C 40.7°F4.8°C 76% Calm Calm 14.8 mph23.8 kmh 30.66 in1038.3 mb 0.00 in0.0 mm 0.00 in0.0 mm 0.00 in0.0 mm
10:50 PM 48.0°F8.9°C 40.7°F4.8°C 76% 1.6 mph ESE2.6 kmh ESE 11.9 mph19.2 kmh 30.66 in1038.3 mb 0.00 in0.0 mm 0.00 in0.0 mm 0.00 in0.0 mm
10:55 PM 48.0°F8.9°C 40.4°F4.7°C 75% 2.2 mph SE3.5 kmh SE 7.4 mph11.9 kmh 30.66 in1038.3 mb 0.00 in0.0 mm 0.00 in0.0 mm 0.00 in0.0 mm
11:00 PM 48.2°F9.0°C 40.5°F4.7°C 75% 10.3 mph ENE16.6 kmh ENE 10.3 mph16.6 kmh 30.66 in1038.3 mb 0.00 in0.0 mm 0.00 in0.0 mm 0.00 in0.0 mm
11:05 PM 48.4°F9.1°C 40.7°F4.8°C 75% 10.7 mph NE17.2 kmh NE 22.6 mph36.4 kmh 30.66 in1038.3 mb 0.00 in0.0 mm 0.00 in0.0 mm 0.00 in0.0 mm
11:10 PM 48.4°F9.1°C 40.7°F4.8°C 75% 2.0 mph NE3.2 kmh NE 22.6 mph36.4 kmh 30.66 in1038.3 mb 0.00 in0.0 mm 0.00 in0.0 mm 0.00 in0.0 mm
11:15 PM 48.6°F9.2°C 40.9°F4.9°C 75% 5.1 mph NE8.2 kmh NE 16.8 mph27.0 kmh 30.66 in1038.3 mb 0.00 in0.0 mm 0.00 in0.0 mm 0.00 in0.0 mm
11:20 PM 48.6°F9.2°C 40.9°F4.9°C 75% 9.8 mph NE15.8 kmh NE 17.0 mph27.4 kmh 30.66 in1038.3 mb 0.00 in0.0 mm 0.00 in0.0 mm 0.00 in0.0 mm
11:25 PM 48.6°F9.2°C 40.9°F4.9°C 75% 13.6 mph NE21.9 kmh NE 20.6 mph33.2 kmh 30.66 in1038.3 mb 0.00 in0.0 mm 0.00 in0.0 mm 0.00 in0.0 mm
11:30 PM 48.6°F9.2°C 40.9°F4.9°C 75% 13.6 mph NE21.9 kmh NE 20.6 mph33.2 kmh 30.66 in1038.3 mb 0.00 in0.0 mm 0.00 in0.0 mm 0.00 in0.0 mm
11:35 PM 48.6°F9.2°C 41.3°F5.2°C 76% 14.3 mph NE23.0 kmh NE 24.8 mph39.9 kmh 30.66 in1038.3 mb 0.00 in0.0 mm 0.00 in0.0 mm 0.00 in0.0 mm
11:40 PM 48.6°F9.2°C 41.3°F5.2°C 76% 4.0 mph NE6.4 kmh NE 24.8 mph39.9 kmh 30.66 in1038.3 mb 0.00 in0.0 mm 0.00 in0.0 mm 0.00 in0.0 mm
11:45 PM 48.4°F9.1°C 41.1°F5.1°C 76% 16.3 mph NE26.2 kmh NE 20.6 mph33.2 kmh 30.66 in1038.3 mb 0.00 in0.0 mm 0.00 in0.0 mm 0.00 in0.0 mm
11:50 PM 48.4°F9.1°C 41.4°F5.2°C 77% 12.5 mph NE20.1 kmh NE 20.6 mph33.2 kmh 30.65 in1037.9 mb 0.00 in0.0 mm 0.00 in0.0 mm 0.00 in0.0 mm
11:55 PM 48.4°F9.1°C 41.4°F5.2°C 77% 2.5 mph NE4.0 kmh NE 19.7 mph31.7 kmh 30.65 in1037.9 mb 0.00 in0.0 mm 0.00 in0.0 mm 0.00 in0.0 mm